Time;durP1;ratioP1;P1;durP2;ratioP2;P2;SDS_P1;SDS_P2;PMS_P1;PMS_P2;Temp;Humidity;BMP_temperature;BMP_pressure;BME280_temperature;BME280_humidity;BME280_pressure;Samples;Min_cycle;Max_cycle;Signal;HPM_P1;HPM_P2
2023/04/21 00:01:42;;;;;;;;;;;;;;;8.43;86.83;99126.20;131534;1280;5372447;-63
2023/04/21 00:04:45;;;;;;;;;;;;;;;8.43;86.74;99125.64;135499;1279;22507;-63
2023/04/21 00:07:47;;;;;;;;;;;;;;;8.44;85.79;99127.02;135600;1280;22509;-63
2023/04/21 00:10:58;;;;;;;;;;;;;;;8.28;85.35;99127.55;135578;1280;22505;-63
2023/04/21 00:14:01;;;;;;;;;;;;;;;8.15;85.71;99123.66;135559;1280;25243;-62
2023/04/21 00:17:03;;;;;;;;;;;;;;;7.95;87.04;99121.41;135555;1280;22527;-63
2023/04/21 00:20:06;;;;;;;;;;;;;;;7.85;87.33;99120.14;135584;1263;24238;-63
2023/04/21 00:23:09;;;;;;;;;;;;;;;7.87;87.44;99119.52;135566;1279;22502;-63
2023/04/21 00:26:12;;;;;;;;;;;;;;;7.67;89.04;99112.90;135532;1263;22544;-64
2023/04/21 00:29:14;;;;;;;;;;;;;;;7.44;90.88;99107.50;135502;1279;22539;-63
2023/04/21 00:32:17;;;;;;;;;;;;;;;7.36;91.22;99109.06;135547;1280;22541;-63
2023/04/21 00:35:19;;;;;;;;;;;;;;;7.23;91.42;99108.58;135520;1280;22512;-62
2023/04/21 00:38:22;;;;;;;;;;;;;;;7.22;90.79;99110.14;135598;1279;22517;-62
2023/04/21 00:41:24;;;;;;;;;;;;;;;7.13;91.24;99113.34;135537;1279;22511;-63
2023/04/21 00:44:27;;;;;;;;;;;;;;;7.05;91.06;99116.30;135545;1280;22557;-62
2023/04/21 00:47:29;;;;;;;;;;;;;;;7.09;89.86;99118.73;135572;1279;23200;-63
2023/04/21 00:50:32;;;;;;;;;;;;;;;6.98;90.47;99119.69;135632;1279;22631;-63
2023/04/21 00:53:34;;;;;;;;;;;;;;;6.97;89.94;99117.45;135618;1265;22508;-63
2023/04/21 00:56:37;;;;;;;;;;;;;;;7.04;90.01;99113.19;135578;1280;24391;-64
2023/04/21 00:59:39;;;;;;;;;;;;;;;7.13;90.08;99115.05;135616;1280;22504;-62
2023/04/21 01:02:44;;;;;;;;;;;;;;;7.17;89.98;99112.98;135579;1270;22516;-62
2023/04/21 01:05:46;;;;;;;;;;;;;;;7.21;89.72;99115.08;135613;1270;22507;-61
2023/04/21 01:08:49;;;;;;;;;;;;;;;7.27;89.55;99110.29;135561;1280;22513;-63
2023/04/21 01:11:51;;;;;;;;;;;;;;;7.34;90.13;99106.38;135574;1280;22541;-63
2023/04/21 01:14:54;;;;;;;;;;;;;;;7.58;88.31;99111.22;135585;1280;22549;-62
2023/04/21 01:17:57;;;;;;;;;;;;;;;7.67;87.01;99110.33;135563;1265;22500;-64
2023/04/21 01:20:59;;;;;;;;;;;;;;;7.57;87.92;99108.85;135625;1280;25615;-65
2023/04/21 01:24:02;;;;;;;;;;;;;;;7.51;88.42;99113.09;135619;1280;22511;-63
2023/04/21 01:27:05;;;;;;;;;;;;;;;7.52;87.47;99113.21;135611;1279;22614;-63
2023/04/21 01:30:07;;;;;;;;;;;;;;;7.50;87.14;99112.61;135596;1271;24350;-63
2023/04/21 01:33:10;;;;;;;;;;;;;;;7.48;86.89;99116.38;135583;1279;25390;-63
2023/04/21 01:36:12;;;;;;;;;;;;;;;7.39;85.61;99115.52;135629;1280;24244;-63
2023/04/21 01:39:14;;;;;;;;;;;;;;;7.19;86.24;99118.65;135584;1280;22531;-61
2023/04/21 01:42:17;;;;;;;;;;;;;;;7.00;87.40;99113.72;135584;1280;22504;-63
2023/04/21 01:45:19;;;;;;;;;;;;;;;6.83;87.84;99114.56;135604;1280;22630;-63
2023/04/21 01:48:22;;;;;;;;;;;;;;;6.78;87.18;99108.52;135640;1280;22582;-62
2023/04/21 01:51:25;;;;;;;;;;;;;;;6.74;87.50;99110.95;135613;1271;22514;-63
2023/04/21 01:54:28;;;;;;;;;;;;;;;6.72;86.98;99110.67;135581;1279;22502;-62
2023/04/21 01:57:30;;;;;;;;;;;;;;;6.65;86.81;99111.13;135619;1280;22531;-63
2023/04/21 02:00:33;;;;;;;;;;;;;;;6.60;87.32;99112.37;135594;1280;22589;-63
2023/04/21 02:03:35;;;;;;;;;;;;;;;6.50;87.74;99114.33;135611;1279;22650;-63
2023/04/21 02:06:38;;;;;;;;;;;;;;;6.50;87.61;99113.44;135633;1267;24209;-64
2023/04/21 02:09:41;;;;;;;;;;;;;;;6.45;87.19;99113.31;135594;1280;22511;-64
2023/04/21 02:12:43;;;;;;;;;;;;;;;6.45;86.77;99114.02;135626;1279;22501;-63
2023/04/21 02:15:46;;;;;;;;;;;;;;;6.38;86.16;99116.86;135589;1280;22515;-62
2023/04/21 02:18:48;;;;;;;;;;;;;;;6.47;86.15;99112.89;135588;1280;22511;-63
2023/04/21 02:21:51;;;;;;;;;;;;;;;6.50;86.14;99111.73;135625;1279;22508;-63
2023/04/21 02:24:53;;;;;;;;;;;;;;;6.51;85.96;99111.35;135601;1279;22575;-64
2023/04/21 02:27:57;;;;;;;;;;;;;;;6.52;87.42;99113.55;135592;1280;22512;-62
2023/04/21 02:31:03;;;;;;;;;;;;;;;6.52;87.01;99117.02;135606;1280;22618;-63
2023/04/21 02:34:05;;;;;;;;;;;;;;;6.56;86.44;99111.86;135652;1280;22508;-63
2023/04/21 02:37:08;;;;;;;;;;;;;;;6.50;86.35;99110.16;135588;1270;22612;-62
2023/04/21 02:40:10;;;;;;;;;;;;;;;6.45;87.53;99109.98;135599;1279;22528;-63
2023/04/21 02:43:13;;;;;;;;;;;;;;;6.41;87.03;99102.00;135653;1279;22503;-63
2023/04/21 02:46:15;;;;;;;;;;;;;;;6.46;87.91;99104.91;135553;1280;22527;-62
2023/04/21 02:49:18;;;;;;;;;;;;;;;6.55;87.80;99104.57;135531;1280;22511;-63
2023/04/21 02:52:20;;;;;;;;;;;;;;;6.61;87.13;99102.23;135535;1279;22625;-62
2023/04/21 02:55:23;;;;;;;;;;;;;;;6.70;85.96;99110.21;135614;1279;25386;-63
2023/04/21 02:58:26;;;;;;;;;;;;;;;6.51;85.94;99119.48;135590;1280;22501;-63
2023/04/21 03:01:28;;;;;;;;;;;;;;;6.26;84.45;99119.10;135625;1280;22505;-63
2023/04/21 03:04:32;;;;;;;;;;;;;;;6.00;85.48;99113.10;135622;1280;22553;-62
2023/04/21 03:07:35;;;;;;;;;;;;;;;5.97;86.07;99117.04;135511;1280;23856;-63
2023/04/21 03:10:38;;;;;;;;;;;;;;;5.94;86.73;99115.23;135585;1280;22504;-63
2023/04/21 03:13:40;;;;;;;;;;;;;;;5.81;86.61;99116.92;135529;1271;22513;-62
2023/04/21 03:16:43;;;;;;;;;;;;;;;5.79;86.62;99118.38;135554;1280;22537;-63
2023/04/21 03:19:45;;;;;;;;;;;;;;;5.84;86.35;99112.80;135615;1280;22525;-63
2023/04/21 03:22:48;;;;;;;;;;;;;;;5.77;86.98;99119.15;135565;1279;22512;-63
2023/04/21 03:25:50;;;;;;;;;;;;;;;5.74;86.77;99118.55;135649;1279;22593;-62
2023/04/21 03:28:52;;;;;;;;;;;;;;;5.63;87.48;99117.55;135612;1280;22506;-62
2023/04/21 03:31:55;;;;;;;;;;;;;;;5.51;88.16;99118.70;135598;1279;22524;-61
2023/04/21 03:34:57;;;;;;;;;;;;;;;5.39;89.14;99122.23;135594;1280;24066;-62
2023/04/21 03:38:00;;;;;;;;;;;;;;;5.26;90.07;99122.66;135631;1280;22500;-62
2023/04/21 03:41:02;;;;;;;;;;;;;;;5.24;89.26;99120.85;135584;1279;22495;-62
2023/04/21 03:44:05;;;;;;;;;;;;;;;4.96;91.34;99123.00;135652;1279;22498;-63
2023/04/21 03:47:07;;;;;;;;;;;;;;;5.02;91.16;99125.57;135593;1280;22732;-62
2023/04/21 03:50:10;;;;;;;;;;;;;;;5.21;90.57;99126.50;135623;1280;25256;-63
2023/04/21 03:53:12;;;;;;;;;;;;;;;5.08;91.09;99126.95;135626;1280;22531;-63
2023/04/21 03:56:15;;;;;;;;;;;;;;;5.13;90.80;99123.80;135597;1280;22660;-63
2023/04/21 03:59:17;;;;;;;;;;;;;;;5.22;91.34;99126.09;135613;1280;22503;-62
2023/04/21 04:02:19;;;;;;;;;;;;;;;5.33;92.10;99127.10;135607;1279;22498;-61
2023/04/21 04:05:22;;;;;;;;;;;;;;;5.40;92.12;99129.14;135606;1280;22563;-62
2023/04/21 04:08:24;;;;;;;;;;;;;;;5.46;91.46;99128.74;135568;1279;22509;-62
2023/04/21 04:11:27;;;;;;;;;;;;;;;5.65;91.96;99131.20;135595;1279;22531;-62
2023/04/21 04:14:29;;;;;;;;;;;;;;;5.86;91.14;99131.83;135590;1279;24230;-63
2023/04/21 04:17:32;;;;;;;;;;;;;;;6.08;92.08;99131.23;135581;1280;22549;-64
2023/04/21 04:20:34;;;;;;;;;;;;;;;6.43;91.05;99132.34;135607;1263;22540;-63
2023/04/21 04:23:37;;;;;;;;;;;;;;;6.61;90.82;99135.44;135583;1279;22508;-63
2023/04/21 04:26:39;;;;;;;;;;;;;;;6.70;90.58;99136.11;135626;1274;22580;-64
2023/04/21 04:29:42;;;;;;;;;;;;;;;6.86;89.22;99139.66;135562;1279;25384;-62
2023/04/21 04:32:45;;;;;;;;;;;;;;;7.01;89.16;99135.23;135558;1280;22491;-63
2023/04/21 04:35:48;;;;;;;;;;;;;;;7.13;88.92;99138.38;135552;1279;22511;-63
2023/04/21 04:38:52;;;;;;;;;;;;;;;7.25;89.18;99139.11;135571;1279;22513;-63
2023/04/21 04:41:55;;;;;;;;;;;;;;;7.44;88.55;99137.42;135591;1279;22514;-62
2023/04/21 04:44:58;;;;;;;;;;;;;;;7.64;87.81;99139.50;135604;1280;22512;-63
2023/04/21 04:48:00;;;;;;;;;;;;;;;7.80;87.78;99136.70;135544;1279;22504;-62
2023/04/21 04:51:03;;;;;;;;;;;;;;;7.87;87.99;99137.61;135594;1279;22507;-63
2023/04/21 04:54:05;;;;;;;;;;;;;;;8.02;88.37;99138.00;135584;1279;22518;-63
2023/04/21 04:57:08;;;;;;;;;;;;;;;8.04;89.05;99140.52;135596;1279;24205;-63
2023/04/21 05:00:11;;;;;;;;;;;;;;;8.34;87.82;99141.78;135538;1279;22509;-63
2023/04/21 05:03:13;;;;;;;;;;;;;;;8.51;86.79;99143.43;135583;1279;22502;-61
2023/04/21 05:06:16;;;;;;;;;;;;;;;8.70;87.84;99140.98;135587;1279;22508;-63
2023/04/21 05:09:18;;;;;;;;;;;;;;;8.88;89.57;99141.13;135514;1279;22629;-62
2023/04/21 05:12:21;;;;;;;;;;;;;;;9.21;89.84;99142.67;135493;1279;22512;-63
2023/04/21 05:15:23;;;;;;;;;;;;;;;9.39;88.77;99142.80;135504;1279;22545;-63
2023/04/21 05:18:25;;;;;;;;;;;;;;;9.73;90.41;99140.03;135588;1276;26498;-63
2023/04/21 05:21:28;;;;;;;;;;;;;;;10.22;89.37;99139.52;135570;1261;24346;-63
2023/04/21 05:24:30;;;;;;;;;;;;;;;10.68;88.08;99143.65;135607;1279;22528;-63
2023/04/21 05:27:33;;;;;;;;;;;;;;;11.15;84.77;99139.95;135538;1260;22504;-63
2023/04/21 05:30:36;;;;;;;;;;;;;;;11.64;82.63;99140.36;135550;1279;22515;-63
2023/04/21 05:33:38;;;;;;;;;;;;;;;11.90;78.67;99138.45;135572;1280;22519;-63
2023/04/21 05:36:41;;;;;;;;;;;;;;;11.91;78.38;99139.05;135562;1279;22506;-63
2023/04/21 05:39:44;;;;;;;;;;;;;;;12.00;78.64;99138.40;135561;1279;23178;-63
2023/04/21 05:42:46;;;;;;;;;;;;;;;12.30;77.50;99144.27;135488;1279;22538;-63
2023/04/21 05:45:49;;;;;;;;;;;;;;;12.58;76.33;99147.52;135559;1279;22504;-62
2023/04/21 05:48:51;;;;;;;;;;;;;;;12.73;76.44;99145.87;135469;1279;22554;-62
2023/04/21 05:51:55;;;;;;;;;;;;;;;13.03;75.78;99146.02;135549;1279;22531;-62
2023/04/21 05:54:58;;;;;;;;;;;;;;;13.11;75.44;99147.98;135533;1279;22520;-63
2023/04/21 05:58:00;;;;;;;;;;;;;;;13.27;76.18;99142.52;135555;1279;22529;-62
2023/04/21 06:01:03;;;;;;;;;;;;;;;13.55;75.15;99137.16;135565;1279;23297;-63
2023/04/21 06:04:05;;;;;;;;;;;;;;;13.89;72.66;99134.81;135513;1279;22509;-63
2023/04/21 06:07:08;;;;;;;;;;;;;;;14.16;71.87;99136.49;135582;1274;22504;-63
2023/04/21 06:10:11;;;;;;;;;;;;;;;14.24;70.53;99132.23;135606;1279;22515;-63
2023/04/21 06:13:13;;;;;;;;;;;;;;;14.49;70.63;99134.49;135559;1279;24364;-62
2023/04/21 06:16:16;;;;;;;;;;;;;;;14.71;70.22;99138.73;135511;1279;22531;-63
2023/04/21 06:19:19;;;;;;;;;;;;;;;14.83;69.23;99138.91;135550;1279;22529;-63
2023/04/21 06:22:21;;;;;;;;;;;;;;;15.15;69.03;99134.40;135548;1279;22884;-63
2023/04/21 06:25:24;;;;;;;;;;;;;;;15.32;67.24;99135.43;135587;1279;22509;-63
2023/04/21 06:28:26;;;;;;;;;;;;;;;15.60;68.28;99133.85;135546;1279;22511;-63
2023/04/21 06:31:28;;;;;;;;;;;;;;;15.89;66.93;99130.04;135531;1280;22511;-64
2023/04/21 06:34:31;;;;;;;;;;;;;;;15.99;66.14;99132.27;135568;1279;22564;-64
2023/04/21 06:37:33;;;;;;;;;;;;;;;16.05;65.08;99129.65;135541;1279;22637;-65
2023/04/21 06:40:36;;;;;;;;;;;;;;;16.11;65.92;99127.45;135515;1279;24237;-63
2023/04/21 06:43:38;;;;;;;;;;;;;;;16.32;65.39;99122.09;135530;1280;22508;-63
2023/04/21 06:46:41;;;;;;;;;;;;;;;16.65;65.28;99120.51;135539;1279;22532;-64
2023/04/21 06:49:43;;;;;;;;;;;;;;;16.96;63.63;99120.65;135530;1279;22968;-63
2023/04/21 06:52:46;;;;;;;;;;;;;;;17.09;61.49;99121.54;135578;1279;22613;-62
2023/04/21 06:55:48;;;;;;;;;;;;;;;17.12;62.20;99117.71;135562;1279;22517;-63
2023/04/21 06:58:51;;;;;;;;;;;;;;;17.54;61.68;99115.61;135553;1279;24306;-63
2023/04/21 07:01:53;;;;;;;;;;;;;;;17.85;60.42;99117.61;135536;1280;22511;-64
2023/04/21 07:04:55;;;;;;;;;;;;;;;17.96;60.76;99112.00;135522;1279;22507;-63
2023/04/21 07:07:59;;;;;;;;;;;;;;;18.07;59.85;99114.11;135516;1280;22517;-62
2023/04/21 07:11:02;;;;;;;;;;;;;;;18.23;57.51;99116.77;135558;1279;22520;-63
2023/04/21 07:14:05;;;;;;;;;;;;;;;18.53;57.06;99116.66;135528;1279;22511;-64
2023/04/21 07:17:08;;;;;;;;;;;;;;;18.61;56.87;99114.80;135527;1264;22507;-64
2023/04/21 07:20:10;;;;;;;;;;;;;;;18.75;54.38;99116.38;135533;1279;24380;-63
2023/04/21 07:23:13;;;;;;;;;;;;;;;18.95;53.37;99113.91;135523;1280;22499;-63
2023/04/21 07:26:16;;;;;;;;;;;;;;;19.17;54.58;99111.59;135534;1279;22532;-63
2023/04/21 07:29:19;;;;;;;;;;;;;;;19.55;53.06;99109.54;135531;1279;25240;-64
2023/04/21 07:32:22;;;;;;;;;;;;;;;19.60;50.54;99108.15;135544;1279;22711;-63
2023/04/21 07:35:24;;;;;;;;;;;;;;;19.57;48.97;99113.06;135513;1279;22634;-63
2023/04/21 07:38:27;;;;;;;;;;;;;;;19.68;48.40;99105.98;135555;1279;26496;-63
2023/04/21 07:41:29;;;;;;;;;;;;;;;19.73;45.60;99106.56;135482;1279;24211;-64
2023/04/21 07:44:32;;;;;;;;;;;;;;;19.82;47.37;99106.23;135549;1279;22516;-63
2023/04/21 07:47:34;;;;;;;;;;;;;;;19.98;47.07;99106.93;135507;1279;22557;-64
2023/04/21 07:50:37;;;;;;;;;;;;;;;20.02;45.80;99102.72;135518;1279;22515;-64
2023/04/21 07:53:39;;;;;;;;;;;;;;;20.05;43.84;99104.13;135507;1280;22541;-63
2023/04/21 07:56:42;;;;;;;;;;;;;;;20.04;43.31;99099.77;135525;1279;22508;-64
2023/04/21 07:59:44;;;;;;;;;;;;;;;20.32;45.98;99097.60;135517;1279;22682;-62
2023/04/21 08:02:46;;;;;;;;;;;;;;;20.57;41.80;99097.10;135485;1262;23143;-63
2023/04/21 08:05:49;;;;;;;;;;;;;;;20.45;39.17;99094.21;135519;1279;22527;-64
2023/04/21 08:08:53;;;;;;;;;;;;;;;20.38;38.08;99094.00;135477;1279;22513;-63
2023/04/21 08:11:56;;;;;;;;;;;;;;;20.34;38.01;99090.61;135514;1279;25397;-63
2023/04/21 08:15:04;;;;;;;;;;;;;;;20.47;36.74;99087.64;135550;1279;22508;-63
2023/04/21 08:18:07;;;;;;;;;;;;;;;20.51;37.69;99087.05;135450;1278;22540;-64
2023/04/21 08:21:09;;;;;;;;;;;;;;;20.66;37.22;99090.57;135424;1263;22513;-64
2023/04/21 08:24:12;;;;;;;;;;;;;;;20.97;39.41;99090.36;135425;1279;22536;-63
2023/04/21 08:27:14;;;;;;;;;;;;;;;21.35;37.86;99094.36;135391;1279;22547;-64
2023/04/21 08:30:16;;;;;;;;;;;;;;;21.49;35.38;99089.98;135479;1279;22514;-63
2023/04/21 08:33:19;;;;;;;;;;;;;;;21.53;36.68;99090.42;135427;1279;22493;-64
2023/04/21 08:36:21;;;;;;;;;;;;;;;21.66;35.33;99086.10;135502;1279;22513;-65
2023/04/21 08:39:24;;;;;;;;;;;;;;;21.64;34.89;99084.71;135492;1279;22515;-65
2023/04/21 08:42:26;;;;;;;;;;;;;;;21.44;33.53;99082.55;135516;1279;23112;-66
2023/04/21 08:45:29;;;;;;;;;;;;;;;21.22;33.00;99076.86;135499;1280;22961;-65
2023/04/21 08:48:31;;;;;;;;;;;;;;;21.24;33.00;99085.30;135512;1279;22516;-67
2023/04/21 08:51:34;;;;;;;;;;;;;;;21.18;33.22;99084.13;135521;1279;22524;-69
2023/04/21 08:54:37;;;;;;;;;;;;;;;20.67;31.73;99091.32;135478;1259;22544;-68
2023/04/21 08:57:40;;;;;;;;;;;;;;;20.19;34.04;99086.04;135504;1262;22559;-66
2023/04/21 09:00:42;;;;;;;;;;;;;;;20.06;34.09;99079.52;135492;1279;22527;-67
2023/04/21 09:03:45;;;;;;;;;;;;;;;20.28;32.70;99078.82;135488;1279;25387;-67
2023/04/21 09:06:47;;;;;;;;;;;;;;;20.46;32.38;99080.21;135507;1279;22766;-66
2023/04/21 09:09:50;;;;;;;;;;;;;;;20.74;32.28;99076.14;135504;1279;24372;-66
2023/04/21 09:12:52;;;;;;;;;;;;;;;21.10;32.81;99073.96;135499;1279;22511;-64
2023/04/21 09:15:54;;;;;;;;;;;;;;;21.34;33.23;99077.95;135473;1279;22547;-64
2023/04/21 09:18:57;;;;;;;;;;;;;;;21.32;31.15;99076.55;135478;1279;22514;-63
2023/04/21 09:21:59;;;;;;;;;;;;;;;20.99;32.94;99074.73;135522;1279;22521;-66
2023/04/21 09:25:02;;;;;;;;;;;;;;;21.47;31.84;99063.64;135525;1279;22619;-66
2023/04/21 09:28:04;;;;;;;;;;;;;;;21.69;32.28;99059.83;135510;1262;22498;-68
2023/04/21 09:31:07;;;;;;;;;;;;;;;21.80;31.53;99052.44;135532;1279;22516;-65
2023/04/21 09:34:09;;;;;;;;;;;;;;;21.96;31.77;99053.73;135522;1262;24398;-64
2023/04/21 09:37:11;;;;;;;;;;;;;;;21.46;31.73;99065.18;135502;1279;22520;-64
2023/04/21 09:40:14;;;;;;;;;;;;;;;20.80;30.83;99061.42;135508;1279;22511;-64
2023/04/21 09:43:17;;;;;;;;;;;;;;;20.27;32.58;99062.05;135500;1279;22544;-64
2023/04/21 09:46:22;;;;;;;;;;;;;;;20.81;32.14;99062.40;135540;1279;22525;-64
2023/04/21 09:49:24;;;;;;;;;;;;;;;21.36;31.45;99058.13;135494;1279;22503;-62
2023/04/21 09:52:27;;;;;;;;;;;;;;;21.80;31.79;99057.53;135532;1279;22518;-64
2023/04/21 09:55:29;;;;;;;;;;;;;;;21.88;32.03;99048.16;135511;1279;22658;-65
2023/04/21 09:58:32;;;;;;;;;;;;;;;21.98;32.16;99047.67;135542;1279;22504;-65
2023/04/21 10:01:37;;;;;;;;;;;;;;;21.44;31.38;99052.89;135542;1262;24209;-65
2023/04/21 10:04:40;;;;;;;;;;;;;;;20.69;31.10;99057.34;135562;1280;22517;-63
2023/04/21 10:07:44;;;;;;;;;;;;;;;20.18;31.70;99058.25;135490;1279;22507;-66
2023/04/21 10:10:46;;;;;;;;;;;;;;;19.84;32.58;99052.70;135531;1279;22544;-64
2023/04/21 10:13:48;;;;;;;;;;;;;;;20.29;32.12;99049.95;135530;1279;22525;-63
2023/04/21 10:16:51;;;;;;;;;;;;;;;21.09;32.68;99043.98;135522;1262;22508;-64
2023/04/21 10:19:55;;;;;;;;;;;;;;;21.79;31.41;99034.13;135529;1279;23891;-64
2023/04/21 10:22:58;;;;;;;;;;;;;;;22.25;30.78;99034.08;135543;1279;25390;-63
2023/04/21 10:26:00;;;;;;;;;;;;;;;22.34;30.11;99041.11;135514;1279;22561;-64
2023/04/21 10:29:03;;;;;;;;;;;;;;;22.16;30.15;99038.14;135539;1279;22503;-64
2023/04/21 10:32:05;;;;;;;;;;;;;;;22.17;29.46;99035.94;135521;1279;22504;-64
2023/04/21 10:35:08;;;;;;;;;;;;;;;22.40;29.83;99031.58;135522;1279;24368;-63
2023/04/21 10:38:10;;;;;;;;;;;;;;;22.17;28.69;99034.08;135549;1262;24350;-63
2023/04/21 10:41:12;;;;;;;;;;;;;;;22.07;29.74;99035.18;135538;1279;22518;-63
2023/04/21 10:44:15;;;;;;;;;;;;;;;22.00;29.11;99027.95;135544;1279;22515;-64
2023/04/21 10:47:17;;;;;;;;;;;;;;;22.12;29.04;99029.29;135501;1279;22521;-63
2023/04/21 10:50:20;;;;;;;;;;;;;;;22.06;28.21;99028.67;135498;1262;22525;-64
2023/04/21 10:53:22;;;;;;;;;;;;;;;22.22;28.41;99014.05;135542;1279;22666;-64
2023/04/21 10:56:24;;;;;;;;;;;;;;;22.31;28.66;99010.01;135565;1279;22511;-65
2023/04/21 10:59:27;;;;;;;;;;;;;;;22.54;28.00;99004.87;135514;1279;22687;-64
2023/04/21 11:02:29;;;;;;;;;;;;;;;22.53;28.38;99015.65;135509;1279;22553;-65
2023/04/21 11:05:33;;;;;;;;;;;;;;;22.34;27.64;99015.78;135568;1279;22504;-65
2023/04/21 11:08:36;;;;;;;;;;;;;;;22.03;27.25;99007.44;135460;1279;22511;-66
2023/04/21 11:11:39;;;;;;;;;;;;;;;22.00;27.10;99009.39;135518;1279;22515;-64
2023/04/21 11:14:41;;;;;;;;;;;;;;;21.78;26.52;99009.92;135518;1262;22519;-64
2023/04/21 11:17:44;;;;;;;;;;;;;;;22.09;28.12;99000.23;135442;1279;22526;-65
2023/04/21 11:20:46;;;;;;;;;;;;;;;22.30;27.46;98999.41;135510;1279;22519;-65
2023/04/21 11:23:49;;;;;;;;;;;;;;;22.41;27.78;98987.79;135513;1279;24374;-64
2023/04/21 11:26:51;;;;;;;;;;;;;;;22.52;27.78;98990.58;135518;1279;22529;-64
2023/04/21 11:29:53;;;;;;;;;;;;;;;22.61;26.80;98992.58;135578;1279;22522;-64
2023/04/21 11:32:56;;;;;;;;;;;;;;;22.34;26.54;98997.41;135544;1260;22513;-64
2023/04/21 11:35:59;;;;;;;;;;;;;;;22.26;27.37;98993.80;135564;1279;22507;-64
2023/04/21 11:39:01;;;;;;;;;;;;;;;22.31;26.77;98992.41;135558;1279;22515;-63
2023/04/21 11:42:04;;;;;;;;;;;;;;;22.38;27.85;98994.69;135574;1262;22525;-66
2023/04/21 11:45:06;;;;;;;;;;;;;;;22.52;26.79;98988.00;135578;1279;22581;-64
2023/04/21 11:48:09;;;;;;;;;;;;;;;22.28;26.17;98990.96;135543;1279;22510;-64
2023/04/21 11:51:11;;;;;;;;;;;;;;;22.13;26.25;98984.15;135598;1279;25388;-63
2023/04/21 11:54:14;;;;;;;;;;;;;;;22.10;26.40;98978.59;135551;1262;23002;-63
2023/04/21 11:57:16;;;;;;;;;;;;;;;22.24;27.04;98977.48;135562;1279;22498;-64
2023/04/21 12:00:19;;;;;;;;;;;;;;;22.54;26.94;98974.51;135551;1279;25610;-63
2023/04/21 12:03:22;;;;;;;;;;;;;;;22.50;26.11;98973.46;131427;1280;5358699;-63
2023/04/21 12:06:25;;;;;;;;;;;;;;;22.48;26.95;98969.59;135551;1279;22525;-64
2023/04/21 12:09:28;;;;;;;;;;;;;;;22.55;25.76;98971.99;135606;1280;22540;-64
2023/04/21 12:12:31;;;;;;;;;;;;;;;22.55;26.67;98966.55;135557;1280;22517;-64
2023/04/21 12:15:33;;;;;;;;;;;;;;;22.70;27.14;98966.46;135540;1279;22590;-63
2023/04/21 12:18:35;;;;;;;;;;;;;;;22.82;26.83;98963.19;135564;1280;22604;-65
2023/04/21 12:21:38;;;;;;;;;;;;;;;22.98;25.83;98950.94;135564;1279;22533;-64
2023/04/21 12:24:41;;;;;;;;;;;;;;;22.93;25.85;98955.54;135570;1262;22513;-63
2023/04/21 12:27:43;;;;;;;;;;;;;;;22.50;25.86;98953.98;135550;1279;22554;-65
2023/04/21 12:30:46;;;;;;;;;;;;;;;22.43;25.62;98950.02;135616;1279;22519;-67
2023/04/21 12:33:48;;;;;;;;;;;;;;;22.64;26.13;98942.70;135555;1279;22531;-64
2023/04/21 12:36:50;;;;;;;;;;;;;;;23.17;26.53;98936.68;135593;1279;22485;-64
2023/04/21 12:39:53;;;;;;;;;;;;;;;23.37;25.16;98945.93;135578;1279;24249;-64
2023/04/21 12:42:55;;;;;;;;;;;;;;;23.34;25.27;98937.15;135572;1279;22515;-64
2023/04/21 12:45:58;;;;;;;;;;;;;;;23.29;25.39;98936.83;135567;1279;22503;-64
2023/04/21 12:49:00;;;;;;;;;;;;;;;23.13;25.45;98936.63;135567;1279;22523;-64
2023/04/21 12:52:04;;;;;;;;;;;;;;;23.10;25.54;98933.92;135554;1279;22518;-65
2023/04/21 12:55:07;;;;;;;;;;;;;;;23.21;25.41;98929.83;135563;1280;22503;-65
2023/04/21 12:58:11;;;;;;;;;;;;;;;23.39;27.36;98931.20;135535;1279;22533;-64
2023/04/21 13:01:14;;;;;;;;;;;;;;;23.88;26.70;98929.23;135497;1280;22530;-66
2023/04/21 13:04:17;;;;;;;;;;;;;;;24.07;26.13;98924.02;135583;1262;22592;-65
2023/04/21 13:07:20;;;;;;;;;;;;;;;24.18;25.19;98917.21;135580;1262;22984;-64
2023/04/21 13:10:24;;;;;;;;;;;;;;;24.12;24.43;98922.95;135573;1280;22531;-64
2023/04/21 13:13:26;;;;;;;;;;;;;;;23.96;25.18;98915.05;135572;1280;24262;-65
2023/04/21 13:16:28;;;;;;;;;;;;;;;23.87;25.20;98911.35;135573;1262;22504;-64
2023/04/21 13:19:31;;;;;;;;;;;;;;;23.57;24.45;98911.91;135631;1279;22522;-64
2023/04/21 13:22:34;;;;;;;;;;;;;;;23.34;25.06;98908.56;135581;1262;22647;-64
2023/04/21 13:25:36;;;;;;;;;;;;;;;23.35;25.64;98903.32;135567;1279;22585;-66
2023/04/21 13:28:39;;;;;;;;;;;;;;;23.47;25.80;98895.33;135559;1279;22521;-63
2023/04/21 13:31:41;;;;;;;;;;;;;;;23.68;25.27;98897.20;135564;1280;23664;-63
2023/04/21 13:34:44;;;;;;;;;;;;;;;23.48;24.79;98892.75;135617;1278;22570;-64
2023/04/21 13:37:48;;;;;;;;;;;;;;;23.23;24.79;98893.98;135562;1279;22559;-64
2023/04/21 13:40:50;;;;;;;;;;;;;;;23.30;25.54;98888.94;135538;1279;22513;-64
2023/04/21 13:43:53;;;;;;;;;;;;;;;23.56;25.63;98890.64;135569;1279;22513;-64
2023/04/21 13:46:56;;;;;;;;;;;;;;;23.54;24.90;98888.52;135632;1279;22523;-64
2023/04/21 13:49:58;;;;;;;;;;;;;;;23.56;24.36;98884.52;135592;1280;22512;-65
2023/04/21 13:53:00;;;;;;;;;;;;;;;23.82;25.58;98877.02;135601;1279;22518;-64
2023/04/21 13:56:03;;;;;;;;;;;;;;;24.15;25.50;98863.86;135582;1279;24391;-63
2023/04/21 13:59:06;;;;;;;;;;;;;;;24.21;25.27;98864.82;135550;1280;22517;-64
2023/04/21 14:02:08;;;;;;;;;;;;;;;23.95;24.94;98862.10;135526;1279;22529;-63
2023/04/21 14:05:11;;;;;;;;;;;;;;;23.84;25.49;98859.23;135525;1279;22535;-64
2023/04/21 14:08:15;;;;;;;;;;;;;;;23.72;26.18;98857.21;135566;1279;22630;-64
2023/04/21 14:11:18;;;;;;;;;;;;;;;23.37;25.71;98850.86;135580;1279;22504;-64
2023/04/21 14:14:20;;;;;;;;;;;;;;;23.16;24.90;98856.80;135598;1279;22506;-63
2023/04/21 14:17:23;;;;;;;;;;;;;;;23.09;25.74;98856.42;135622;1280;22527;-63
2023/04/21 14:20:25;;;;;;;;;;;;;;;23.16;25.38;98847.11;135573;1279;22655;-63
2023/04/21 14:23:28;;;;;;;;;;;;;;;23.29;26.04;98851.04;135611;1279;22533;-64
2023/04/21 14:26:30;;;;;;;;;;;;;;;23.35;26.11;98849.30;135610;1279;22532;-65
2023/04/21 14:29:33;;;;;;;;;;;;;;;23.40;26.20;98846.23;135622;1262;22517;-64
2023/04/21 14:32:35;;;;;;;;;;;;;;;23.38;26.19;98847.35;135555;1280;22523;-65
2023/04/21 14:35:37;;;;;;;;;;;;;;;23.42;26.86;98843.61;135556;1279;22528;-64
2023/04/21 14:38:41;;;;;;;;;;;;;;;23.57;26.15;98843.33;135641;1280;22615;-65
2023/04/21 14:41:44;;;;;;;;;;;;;;;23.73;26.40;98838.91;135661;1280;22556;-63
2023/04/21 14:44:46;;;;;;;;;;;;;;;24.09;26.07;98835.27;135587;1279;24224;-64
2023/04/21 14:47:48;;;;;;;;;;;;;;;24.09;25.26;98834.91;135571;1279;22530;-63
2023/04/21 14:50:51;;;;;;;;;;;;;;;24.23;25.09;98826.77;135573;1279;22507;-65
2023/04/21 14:53:53;;;;;;;;;;;;;;;24.29;24.83;98824.15;135576;1279;22585;-64
2023/04/21 14:56:56;;;;;;;;;;;;;;;24.17;24.65;98821.30;135609;1279;22511;-65
2023/04/21 14:59:59;;;;;;;;;;;;;;;23.84;24.65;98825.98;135609;1279;25380;-64
2023/04/21 15:03:02;;;;;;;;;;;;;;;24.02;25.85;98822.71;135609;1279;24715;-64
2023/04/21 15:06:05;;;;;;;;;;;;;;;24.39;26.15;98817.66;135537;1279;22501;-64
2023/04/21 15:09:07;;;;;;;;;;;;;;;24.57;26.20;98809.84;135608;1280;25390;-64
2023/04/21 15:12:11;;;;;;;;;;;;;;;24.90;25.57;98810.36;135617;1279;25474;-65
2023/04/21 15:15:14;;;;;;;;;;;;;;;25.00;24.23;98809.75;135619;1279;22528;-63
2023/04/21 15:18:16;;;;;;;;;;;;;;;25.28;23.98;98810.33;135596;1266;22497;-65
2023/04/21 15:21:18;;;;;;;;;;;;;;;26.63;24.34;98801.48;135623;1279;25442;-64
2023/04/21 15:24:21;;;;;;;;;;;;;;;27.97;22.79;98801.41;135593;1279;22503;-63
2023/04/21 15:27:23;;;;;;;;;;;;;;;28.48;21.66;98793.05;135592;1280;22520;-64
2023/04/21 15:30:26;;;;;;;;;;;;;;;29.01;21.75;98797.24;135599;1280;22555;-65
2023/04/21 15:33:28;;;;;;;;;;;;;;;29.12;20.72;98796.95;135555;1279;22657;-64
2023/04/21 15:36:31;;;;;;;;;;;;;;;29.35;20.47;98795.24;135607;1280;22503;-63
2023/04/21 15:39:33;;;;;;;;;;;;;;;29.06;20.23;98796.20;135615;1280;24343;-63
2023/04/21 15:42:36;;;;;;;;;;;;;;;28.85;20.17;98792.61;135564;1280;22519;-63